sensor_id;sensor_type;location;lat;lon;timestamp;P1;durP1;ratioP1;P2;durP2;ratioP2
58460;SDS011;45558;37.752;-97.822;2022-12-07T00:01:32;36.13;;;15.23;;
58460;SDS011;45558;37.752;-97.822;2022-12-07T00:04:00;61.17;;;28.33;;
58460;SDS011;45558;37.752;-97.822;2022-12-07T00:06:33;53.60;;;24.10;;
58460;SDS011;45558;37.752;-97.822;2022-12-07T00:09:15;34.22;;;18.83;;
58460;SDS011;45558;37.752;-97.822;2022-12-07T00:11:42;35.40;;;17.67;;
58460;SDS011;45558;37.752;-97.822;2022-12-07T00:14:12;55.55;;;23.33;;
58460;SDS011;45558;37.752;-97.822;2022-12-07T00:16:39;50.25;;;23.98;;
58460;SDS011;45558;37.752;-97.822;2022-12-07T00:19:05;44.72;;;24.30;;
58460;SDS011;45558;37.752;-97.822;2022-12-07T00:21:32;52.10;;;27.17;;
58460;SDS011;45558;37.752;-97.822;2022-12-07T00:23:59;53.70;;;24.98;;
58460;SDS011;45558;37.752;-97.822;2022-12-07T00:26:29;34.53;;;19.10;;
58460;SDS011;45558;37.752;-97.822;2022-12-07T00:29:01;42.15;;;20.98;;
58460;SDS011;45558;37.752;-97.822;2022-12-07T00:31:33;42.05;;;18.63;;
58460;SDS011;45558;37.752;-97.822;2022-12-07T00:34:04;34.03;;;17.48;;
58460;SDS011;45558;37.752;-97.822;2022-12-07T00:36:30;43.08;;;18.33;;
58460;SDS011;45558;37.752;-97.822;2022-12-07T00:38:59;35.38;;;17.70;;
58460;SDS011;45558;37.752;-97.822;2022-12-07T00:41:26;32.40;;;16.15;;
58460;SDS011;45558;37.752;-97.822;2022-12-07T00:43:53;27.98;;;14.98;;
58460;SDS011;45558;37.752;-97.822;2022-12-07T00:46:19;20.75;;;12.35;;
58460;SDS011;45558;37.752;-97.822;2022-12-07T00:48:46;30.08;;;15.32;;
58460;SDS011;45558;37.752;-97.822;2022-12-07T00:51:12;28.92;;;15.18;;
58460;SDS011;45558;37.752;-97.822;2022-12-07T00:53:39;32.58;;;18.92;;
58460;SDS011;45558;37.752;-97.822;2022-12-07T00:56:06;28.88;;;15.70;;
58460;SDS011;45558;37.752;-97.822;2022-12-07T00:58:32;24.67;;;14.18;;
58460;SDS011;45558;37.752;-97.822;2022-12-07T01:00:59;37.75;;;17.45;;
58460;SDS011;45558;37.752;-97.822;2022-12-07T01:03:29;34.92;;;16.65;;
58460;SDS011;45558;37.752;-97.822;2022-12-07T01:05:55;25.58;;;14.68;;
58460;SDS011;45558;37.752;-97.822;2022-12-07T01:08:21;27.13;;;14.38;;
58460;SDS011;45558;37.752;-97.822;2022-12-07T01:10:47;22.48;;;13.25;;
58460;SDS011;45558;37.752;-97.822;2022-12-07T01:13:13;23.50;;;12.68;;
58460;SDS011;45558;37.752;-97.822;2022-12-07T01:15:43;21.63;;;11.98;;
58460;SDS011;45558;37.752;-97.822;2022-12-07T01:18:10;29.00;;;14.88;;
58460;SDS011;45558;37.752;-97.822;2022-12-07T01:20:36;21.02;;;12.27;;
58460;SDS011;45558;37.752;-97.822;2022-12-07T01:23:02;23.85;;;11.55;;
58460;SDS011;45558;37.752;-97.822;2022-12-07T01:25:28;22.33;;;10.60;;
58460;SDS011;45558;37.752;-97.822;2022-12-07T01:27:54;22.52;;;12.05;;
58460;SDS011;45558;37.752;-97.822;2022-12-07T01:30:20;19.23;;;11.30;;
58460;SDS011;45558;37.752;-97.822;2022-12-07T01:32:45;18.48;;;10.35;;
58460;SDS011;45558;37.752;-97.822;2022-12-07T01:35:11;18.38;;;9.85;;
58460;SDS011;45558;37.752;-97.822;2022-12-07T01:37:37;14.95;;;8.90;;
58460;SDS011;45558;37.752;-97.822;2022-12-07T01:40:04;19.05;;;10.10;;
58460;SDS011;45558;37.752;-97.822;2022-12-07T01:42:32;17.60;;;9.80;;
58460;SDS011;45558;37.752;-97.822;2022-12-07T01:47:43;15.27;;;9.48;;
58460;SDS011;45558;37.752;-97.822;2022-12-07T01:50:12;18.85;;;9.57;;
58460;SDS011;45558;37.752;-97.822;2022-12-07T01:52:38;16.65;;;9.80;;
58460;SDS011;45558;37.752;-97.822;2022-12-07T01:55:06;17.48;;;9.60;;
58460;SDS011;45558;37.752;-97.822;2022-12-07T01:57:34;18.60;;;9.75;;
58460;SDS011;45558;37.752;-97.822;2022-12-07T02:00:04;17.75;;;9.80;;
58460;SDS011;45558;37.752;-97.822;2022-12-07T02:02:35;17.08;;;10.77;;
58460;SDS011;45558;37.752;-97.822;2022-12-07T02:05:04;19.73;;;10.30;;
58460;SDS011;45558;37.752;-97.822;2022-12-07T02:07:31;20.70;;;11.02;;
58460;SDS011;45558;37.752;-97.822;2022-12-07T02:10:11;24.00;;;10.13;;
58460;SDS011;45558;37.752;-97.822;2022-12-07T02:12:49;15.77;;;9.95;;
58460;SDS011;45558;37.752;-97.822;2022-12-07T02:15:17;23.77;;;11.05;;
58460;SDS011;45558;37.752;-97.822;2022-12-07T02:20:28;25.67;;;12.90;;
58460;SDS011;45558;37.752;-97.822;2022-12-07T02:27:56;20.83;;;11.15;;
58460;SDS011;45558;37.752;-97.822;2022-12-07T02:30:30;26.67;;;13.65;;
58460;SDS011;45558;37.752;-97.822;2022-12-07T02:35:33;24.30;;;12.10;;
58460;SDS011;45558;37.752;-97.822;2022-12-07T02:38:13;21.25;;;10.27;;
58460;SDS011;45558;37.752;-97.822;2022-12-07T02:41:02;21.92;;;10.50;;
58460;SDS011;45558;37.752;-97.822;2022-12-07T02:43:35;24.20;;;12.65;;
58460;SDS011;45558;37.752;-97.822;2022-12-07T02:46:03;35.30;;;13.52;;
58460;SDS011;45558;37.752;-97.822;2022-12-07T02:48:30;33.53;;;17.05;;
58460;SDS011;45558;37.752;-97.822;2022-12-07T02:50:57;27.10;;;12.63;;
58460;SDS011;45558;37.752;-97.822;2022-12-07T02:53:32;20.75;;;11.52;;
58460;SDS011;45558;37.752;-97.822;2022-12-07T02:56:06;21.60;;;9.40;;
58460;SDS011;45558;37.752;-97.822;2022-12-07T03:04:07;24.25;;;10.23;;
58460;SDS011;45558;37.752;-97.822;2022-12-07T03:07:00;20.90;;;8.60;;
58460;SDS011;45558;37.752;-97.822;2022-12-07T03:09:36;15.35;;;8.75;;
58460;SDS011;45558;37.752;-97.822;2022-12-07T03:12:07;20.13;;;9.27;;
58460;SDS011;45558;37.752;-97.822;2022-12-07T03:17:18;15.13;;;9.32;;
58460;SDS011;45558;37.752;-97.822;2022-12-07T03:19:46;15.63;;;8.95;;
58460;SDS011;45558;37.752;-97.822;2022-12-07T03:22:14;21.80;;;11.13;;
58460;SDS011;45558;37.752;-97.822;2022-12-07T03:24:42;26.05;;;9.50;;
58460;SDS011;45558;37.752;-97.822;2022-12-07T03:29:38;16.55;;;8.32;;
58460;SDS011;45558;37.752;-97.822;2022-12-07T03:32:19;19.98;;;8.90;;
58460;SDS011;45558;37.752;-97.822;2022-12-07T03:34:58;20.08;;;9.77;;
58460;SDS011;45558;37.752;-97.822;2022-12-07T03:37:34;16.75;;;8.63;;
58460;SDS011;45558;37.752;-97.822;2022-12-07T03:42:59;17.17;;;8.75;;
58460;SDS011;45558;37.752;-97.822;2022-12-07T03:45:32;12.98;;;8.45;;
58460;SDS011;45558;37.752;-97.822;2022-12-07T03:48:15;13.85;;;8.43;;
58460;SDS011;45558;37.752;-97.822;2022-12-07T03:54:18;14.93;;;8.40;;
58460;SDS011;45558;37.752;-97.822;2022-12-07T03:56:47;16.00;;;9.15;;
58460;SDS011;45558;37.752;-97.822;2022-12-07T03:59:14;12.88;;;8.07;;
58460;SDS011;45558;37.752;-97.822;2022-12-07T04:01:42;16.10;;;8.77;;
58460;SDS011;45558;37.752;-97.822;2022-12-07T04:04:08;18.52;;;8.30;;
58460;SDS011;45558;37.752;-97.822;2022-12-07T04:06:34;13.98;;;8.13;;
58460;SDS011;45558;37.752;-97.822;2022-12-07T04:09:00;16.45;;;8.63;;
58460;SDS011;45558;37.752;-97.822;2022-12-07T04:11:27;17.08;;;8.65;;
58460;SDS011;45558;37.752;-97.822;2022-12-07T04:13:54;17.17;;;8.68;;
58460;SDS011;45558;37.752;-97.822;2022-12-07T04:16:38;17.35;;;8.35;;
58460;SDS011;45558;37.752;-97.822;2022-12-07T04:19:06;16.25;;;9.05;;
58460;SDS011;45558;37.752;-97.822;2022-12-07T04:21:31;15.80;;;8.40;;
58460;SDS011;45558;37.752;-97.822;2022-12-07T04:23:57;18.98;;;8.73;;
58460;SDS011;45558;37.752;-97.822;2022-12-07T04:26:23;14.27;;;8.50;;
58460;SDS011;45558;37.752;-97.822;2022-12-07T04:28:48;16.98;;;8.98;;
58460;SDS011;45558;37.752;-97.822;2022-12-07T04:31:14;18.35;;;8.60;;
58460;SDS011;45558;37.752;-97.822;2022-12-07T04:33:40;15.55;;;8.93;;
58460;SDS011;45558;37.752;-97.822;2022-12-07T04:36:05;19.48;;;8.55;;
58460;SDS011;45558;37.752;-97.822;2022-12-07T04:38:31;16.83;;;8.25;;
58460;SDS011;45558;37.752;-97.822;2022-12-07T04:40:57;20.75;;;8.45;;
58460;SDS011;45558;37.752;-97.822;2022-12-07T04:43:22;15.88;;;7.82;;
58460;SDS011;45558;37.752;-97.822;2022-12-07T04:45:48;14.52;;;7.75;;
58460;SDS011;45558;37.752;-97.822;2022-12-07T04:48:14;15.43;;;7.75;;
58460;SDS011;45558;37.752;-97.822;2022-12-07T04:50:40;17.60;;;9.07;;
58460;SDS011;45558;37.752;-97.822;2022-12-07T04:53:05;14.10;;;7.85;;
58460;SDS011;45558;37.752;-97.822;2022-12-07T04:55:31;17.85;;;8.60;;
58460;SDS011;45558;37.752;-97.822;2022-12-07T04:57:57;14.50;;;8.35;;
58460;SDS011;45558;37.752;-97.822;2022-12-07T05:00:22;14.73;;;8.88;;
58460;SDS011;45558;37.752;-97.822;2022-12-07T05:02:48;15.20;;;8.50;;
58460;SDS011;45558;37.752;-97.822;2022-12-07T05:05:14;15.57;;;8.38;;
58460;SDS011;45558;37.752;-97.822;2022-12-07T05:07:39;24.63;;;8.23;;
58460;SDS011;45558;37.752;-97.822;2022-12-07T05:13:27;21.50;;;9.35;;
58460;SDS011;45558;37.752;-97.822;2022-12-07T05:15:52;19.17;;;9.80;;
58460;SDS011;45558;37.752;-97.822;2022-12-07T05:18:18;16.77;;;9.05;;
58460;SDS011;45558;37.752;-97.822;2022-12-07T05:20:44;20.73;;;9.98;;
58460;SDS011;45558;37.752;-97.822;2022-12-07T05:23:10;15.98;;;9.38;;
58460;SDS011;45558;37.752;-97.822;2022-12-07T05:25:35;21.75;;;10.70;;
58460;SDS011;45558;37.752;-97.822;2022-12-07T05:28:01;17.20;;;10.25;;
58460;SDS011;45558;37.752;-97.822;2022-12-07T05:30:27;17.00;;;10.00;;
58460;SDS011;45558;37.752;-97.822;2022-12-07T05:32:53;25.63;;;10.52;;
58460;SDS011;45558;37.752;-97.822;2022-12-07T05:35:19;20.27;;;9.80;;
58460;SDS011;45558;37.752;-97.822;2022-12-07T05:37:44;19.48;;;10.45;;
58460;SDS011;45558;37.752;-97.822;2022-12-07T05:40:11;19.25;;;10.88;;
58460;SDS011;45558;37.752;-97.822;2022-12-07T05:42:37;23.08;;;11.18;;
58460;SDS011;45558;37.752;-97.822;2022-12-07T05:45:04;18.25;;;10.27;;
58460;SDS011;45558;37.752;-97.822;2022-12-07T05:47:30;21.13;;;10.20;;
58460;SDS011;45558;37.752;-97.822;2022-12-07T05:49:56;18.13;;;10.80;;
58460;SDS011;45558;37.752;-97.822;2022-12-07T05:52:22;24.50;;;10.88;;
58460;SDS011;45558;37.752;-97.822;2022-12-07T05:54:47;17.02;;;10.15;;
58460;SDS011;45558;37.752;-97.822;2022-12-07T05:57:13;21.90;;;11.63;;
58460;SDS011;45558;37.752;-97.822;2022-12-07T05:59:40;27.88;;;12.80;;
58460;SDS011;45558;37.752;-97.822;2022-12-07T06:02:10;25.23;;;12.25;;
58460;SDS011;45558;37.752;-97.822;2022-12-07T06:04:38;20.63;;;10.63;;
58460;SDS011;45558;37.752;-97.822;2022-12-07T06:07:05;24.95;;;10.88;;
58460;SDS011;45558;37.752;-97.822;2022-12-07T06:09:31;21.85;;;10.32;;
58460;SDS011;45558;37.752;-97.822;2022-12-07T06:11:57;23.40;;;11.77;;
58460;SDS011;45558;37.752;-97.822;2022-12-07T06:14:41;24.42;;;11.85;;
58460;SDS011;45558;37.752;-97.822;2022-12-07T06:17:07;20.60;;;11.00;;
58460;SDS011;45558;37.752;-97.822;2022-12-07T06:19:33;20.05;;;11.35;;
58460;SDS011;45558;37.752;-97.822;2022-12-07T06:21:59;20.67;;;10.95;;
58460;SDS011;45558;37.752;-97.822;2022-12-07T06:24:24;20.50;;;11.52;;
58460;SDS011;45558;37.752;-97.822;2022-12-07T06:26:50;18.60;;;11.00;;
58460;SDS011;45558;37.752;-97.822;2022-12-07T06:29:16;22.45;;;12.07;;
58460;SDS011;45558;37.752;-97.822;2022-12-07T06:31:42;20.55;;;11.15;;
58460;SDS011;45558;37.752;-97.822;2022-12-07T06:34:09;22.50;;;11.02;;
58460;SDS011;45558;37.752;-97.822;2022-12-07T06:36:36;20.35;;;11.18;;
58460;SDS011;45558;37.752;-97.822;2022-12-07T06:39:02;20.85;;;10.57;;
58460;SDS011;45558;37.752;-97.822;2022-12-07T06:41:28;25.02;;;11.48;;
58460;SDS011;45558;37.752;-97.822;2022-12-07T06:43:54;22.27;;;11.68;;
58460;SDS011;45558;37.752;-97.822;2022-12-07T06:46:20;22.80;;;10.57;;
58460;SDS011;45558;37.752;-97.822;2022-12-07T06:48:46;19.73;;;10.75;;
58460;SDS011;45558;37.752;-97.822;2022-12-07T06:51:11;21.45;;;10.38;;
58460;SDS011;45558;37.752;-97.822;2022-12-07T06:53:37;23.00;;;11.80;;
58460;SDS011;45558;37.752;-97.822;2022-12-07T06:56:03;24.08;;;10.88;;
58460;SDS011;45558;37.752;-97.822;2022-12-07T06:58:29;26.90;;;14.73;;
58460;SDS011;45558;37.752;-97.822;2022-12-07T07:00:55;22.30;;;11.10;;
58460;SDS011;45558;37.752;-97.822;2022-12-07T07:03:21;22.02;;;10.63;;
58460;SDS011;45558;37.752;-97.822;2022-12-07T07:05:47;21.50;;;10.82;;
58460;SDS011;45558;37.752;-97.822;2022-12-07T07:08:12;20.05;;;11.48;;
58460;SDS011;45558;37.752;-97.822;2022-12-07T07:10:38;22.23;;;10.35;;
58460;SDS011;45558;37.752;-97.822;2022-12-07T07:13:04;24.98;;;13.23;;
58460;SDS011;45558;37.752;-97.822;2022-12-07T07:15:31;21.60;;;10.55;;
58460;SDS011;45558;37.752;-97.822;2022-12-07T07:17:57;18.95;;;10.50;;
58460;SDS011;45558;37.752;-97.822;2022-12-07T07:20:23;17.70;;;10.63;;
58460;SDS011;45558;37.752;-97.822;2022-12-07T07:22:48;21.30;;;10.55;;
58460;SDS011;45558;37.752;-97.822;2022-12-07T07:25:15;26.25;;;11.93;;
58460;SDS011;45558;37.752;-97.822;2022-12-07T07:27:41;24.10;;;10.95;;
58460;SDS011;45558;37.752;-97.822;2022-12-07T07:30:07;22.13;;;11.00;;
58460;SDS011;45558;37.752;-97.822;2022-12-07T07:32:34;21.63;;;10.77;;
58460;SDS011;45558;37.752;-97.822;2022-12-07T07:34:59;19.90;;;10.02;;
58460;SDS011;45558;37.752;-97.822;2022-12-07T07:37:25;20.27;;;10.05;;
58460;SDS011;45558;37.752;-97.822;2022-12-07T07:39:51;16.05;;;9.70;;
58460;SDS011;45558;37.752;-97.822;2022-12-07T07:42:17;20.38;;;10.05;;
58460;SDS011;45558;37.752;-97.822;2022-12-07T07:44:43;22.75;;;10.52;;
58460;SDS011;45558;37.752;-97.822;2022-12-07T07:47:09;21.88;;;12.63;;
58460;SDS011;45558;37.752;-97.822;2022-12-07T07:49:34;24.63;;;11.82;;
58460;SDS011;45558;37.752;-97.822;2022-12-07T07:52:00;21.95;;;10.35;;
58460;SDS011;45558;37.752;-97.822;2022-12-07T07:54:26;20.48;;;10.85;;
58460;SDS011;45558;37.752;-97.822;2022-12-07T07:56:53;16.60;;;10.32;;
58460;SDS011;45558;37.752;-97.822;2022-12-07T07:59:18;21.67;;;10.18;;
58460;SDS011;45558;37.752;-97.822;2022-12-07T08:01:44;18.17;;;9.18;;
58460;SDS011;45558;37.752;-97.822;2022-12-07T08:04:10;20.10;;;10.25;;
58460;SDS011;45558;37.752;-97.822;2022-12-07T08:06:36;20.23;;;11.00;;
58460;SDS011;45558;37.752;-97.822;2022-12-07T08:09:02;18.38;;;10.00;;
58460;SDS011;45558;37.752;-97.822;2022-12-07T08:11:30;16.13;;;9.10;;
58460;SDS011;45558;37.752;-97.822;2022-12-07T08:13:56;19.50;;;8.75;;
58460;SDS011;45558;37.752;-97.822;2022-12-07T08:16:21;21.33;;;10.10;;
58460;SDS011;45558;37.752;-97.822;2022-12-07T08:18:48;25.95;;;10.75;;
58460;SDS011;45558;37.752;-97.822;2022-12-07T08:21:14;18.15;;;8.98;;
58460;SDS011;45558;37.752;-97.822;2022-12-07T08:23:41;19.88;;;9.15;;
58460;SDS011;45558;37.752;-97.822;2022-12-07T08:26:08;22.65;;;11.00;;
58460;SDS011;45558;37.752;-97.822;2022-12-07T08:28:35;17.38;;;8.98;;
58460;SDS011;45558;37.752;-97.822;2022-12-07T08:31:02;22.75;;;8.80;;
58460;SDS011;45558;37.752;-97.822;2022-12-07T08:33:30;17.90;;;9.10;;
58460;SDS011;45558;37.752;-97.822;2022-12-07T08:36:00;17.75;;;8.68;;
58460;SDS011;45558;37.752;-97.822;2022-12-07T08:38:26;18.23;;;8.63;;
58460;SDS011;45558;37.752;-97.822;2022-12-07T08:40:56;19.48;;;10.13;;
58460;SDS011;45558;37.752;-97.822;2022-12-07T08:43:22;19.42;;;9.57;;
58460;SDS011;45558;37.752;-97.822;2022-12-07T08:45:49;17.80;;;9.35;;
58460;SDS011;45558;37.752;-97.822;2022-12-07T08:48:19;19.23;;;9.00;;
58460;SDS011;45558;37.752;-97.822;2022-12-07T08:50:49;21.15;;;10.07;;
58460;SDS011;45558;37.752;-97.822;2022-12-07T08:53:16;18.80;;;10.07;;
58460;SDS011;45558;37.752;-97.822;2022-12-07T08:55:43;18.90;;;10.02;;
58460;SDS011;45558;37.752;-97.822;2022-12-07T08:58:11;18.48;;;10.27;;
58460;SDS011;45558;37.752;-97.822;2022-12-07T09:00:37;19.05;;;8.77;;
58460;SDS011;45558;37.752;-97.822;2022-12-07T09:03:03;23.23;;;10.32;;
58460;SDS011;45558;37.752;-97.822;2022-12-07T09:05:30;24.15;;;10.32;;
58460;SDS011;45558;37.752;-97.822;2022-12-07T09:07:56;17.20;;;10.07;;
58460;SDS011;45558;37.752;-97.822;2022-12-07T09:10:24;16.60;;;9.43;;
58460;SDS011;45558;37.752;-97.822;2022-12-07T09:12:51;21.45;;;10.27;;
58460;SDS011;45558;37.752;-97.822;2022-12-07T09:15:16;17.60;;;10.10;;
58460;SDS011;45558;37.752;-97.822;2022-12-07T09:17:42;17.90;;;9.18;;
58460;SDS011;45558;37.752;-97.822;2022-12-07T09:20:08;20.40;;;9.68;;
58460;SDS011;45558;37.752;-97.822;2022-12-07T09:22:34;19.65;;;9.48;;
58460;SDS011;45558;37.752;-97.822;2022-12-07T09:25:01;19.25;;;9.60;;
58460;SDS011;45558;37.752;-97.822;2022-12-07T09:27:27;17.65;;;9.25;;
58460;SDS011;45558;37.752;-97.822;2022-12-07T09:29:53;18.38;;;9.00;;
58460;SDS011;45558;37.752;-97.822;2022-12-07T09:32:19;17.02;;;8.80;;
58460;SDS011;45558;37.752;-97.822;2022-12-07T09:34:45;20.52;;;10.13;;
58460;SDS011;45558;37.752;-97.822;2022-12-07T09:37:11;17.42;;;9.80;;
58460;SDS011;45558;37.752;-97.822;2022-12-07T09:39:40;20.73;;;9.32;;
58460;SDS011;45558;37.752;-97.822;2022-12-07T09:42:06;21.25;;;10.32;;
58460;SDS011;45558;37.752;-97.822;2022-12-07T09:44:32;17.73;;;8.23;;
58460;SDS011;45558;37.752;-97.822;2022-12-07T09:46:59;16.08;;;7.95;;
58460;SDS011;45558;37.752;-97.822;2022-12-07T09:49:25;14.63;;;7.80;;
58460;SDS011;45558;37.752;-97.822;2022-12-07T09:54:43;15.27;;;7.97;;
58460;SDS011;45558;37.752;-97.822;2022-12-07T09:57:14;13.43;;;7.00;;
58460;SDS011;45558;37.752;-97.822;2022-12-07T09:59:41;14.73;;;7.22;;
58460;SDS011;45558;37.752;-97.822;2022-12-07T10:05:05;15.80;;;7.97;;
58460;SDS011;45558;37.752;-97.822;2022-12-07T10:07:32;16.13;;;9.00;;
58460;SDS011;45558;37.752;-97.822;2022-12-07T10:09:57;16.55;;;10.30;;
58460;SDS011;45558;37.752;-97.822;2022-12-07T10:12:23;15.60;;;7.35;;
58460;SDS011;45558;37.752;-97.822;2022-12-07T10:17:35;19.50;;;8.95;;
58460;SDS011;45558;37.752;-97.822;2022-12-07T10:20:24;15.68;;;9.30;;
58460;SDS011;45558;37.752;-97.822;2022-12-07T10:23:05;19.60;;;10.68;;
58460;SDS011;45558;37.752;-97.822;2022-12-07T10:25:35;18.08;;;9.80;;
58460;SDS011;45558;37.752;-97.822;2022-12-07T10:28:02;20.58;;;10.85;;
58460;SDS011;45558;37.752;-97.822;2022-12-07T10:30:45;23.30;;;10.90;;
58460;SDS011;45558;37.752;-97.822;2022-12-07T10:33:34;23.52;;;11.05;;
58460;SDS011;45558;37.752;-97.822;2022-12-07T10:36:37;25.17;;;10.23;;
58460;SDS011;45558;37.752;-97.822;2022-12-07T10:39:03;16.52;;;9.43;;
58460;SDS011;45558;37.752;-97.822;2022-12-07T10:41:53;19.75;;;8.65;;
58460;SDS011;45558;37.752;-97.822;2022-12-07T10:44:21;14.40;;;7.93;;
58460;SDS011;45558;37.752;-97.822;2022-12-07T10:46:54;15.85;;;8.00;;
58460;SDS011;45558;37.752;-97.822;2022-12-07T10:52:42;17.85;;;8.68;;
58460;SDS011;45558;37.752;-97.822;2022-12-07T11:14:28;10.73;;;6.25;;
58460;SDS011;45558;37.752;-97.822;2022-12-07T11:17:12;13.75;;;5.82;;
58460;SDS011;45558;37.752;-97.822;2022-12-07T11:22:25;16.10;;;5.78;;
58460;SDS011;45558;37.752;-97.822;2022-12-07T11:30:46;9.85;;;5.18;;
58460;SDS011;45558;37.752;-97.822;2022-12-07T11:33:27;14.35;;;6.03;;
58460;SDS011;45558;37.752;-97.822;2022-12-07T11:38:50;11.38;;;6.35;;
58460;SDS011;45558;37.752;-97.822;2022-12-07T11:41:22;13.68;;;4.80;;
58460;SDS011;45558;37.752;-97.822;2022-12-07T11:46:50;16.83;;;5.28;;
58460;SDS011;45558;37.752;-97.822;2022-12-07T11:52:04;10.88;;;5.03;;
58460;SDS011;45558;37.752;-97.822;2022-12-07T11:54:35;14.15;;;5.18;;
58460;SDS011;45558;37.752;-97.822;2022-12-07T11:57:02;9.73;;;5.00;;
58460;SDS011;45558;37.752;-97.822;2022-12-07T11:59:31;9.27;;;4.72;;
58460;SDS011;45558;37.752;-97.822;2022-12-07T12:02:03;8.82;;;4.63;;
58460;SDS011;45558;37.752;-97.822;2022-12-07T12:07:42;9.80;;;4.35;;
58460;SDS011;45558;37.752;-97.822;2022-12-07T12:10:19;10.07;;;4.47;;
58460;SDS011;45558;37.752;-97.822;2022-12-07T12:21:10;41.55;;;17.98;;
58460;SDS011;45558;37.752;-97.822;2022-12-07T12:23:43;8.85;;;4.28;;
58460;SDS011;45558;37.752;-97.822;2022-12-07T12:26:31;12.07;;;4.65;;
58460;SDS011;45558;37.752;-97.822;2022-12-07T12:29:02;12.73;;;5.07;;
58460;SDS011;45558;37.752;-97.822;2022-12-07T12:31:32;9.65;;;4.25;;
58460;SDS011;45558;37.752;-97.822;2022-12-07T12:34:10;11.32;;;3.85;;
58460;SDS011;45558;37.752;-97.822;2022-12-07T12:36:56;8.85;;;4.15;;
58460;SDS011;45558;37.752;-97.822;2022-12-07T12:39:22;11.65;;;4.38;;
58460;SDS011;45558;37.752;-97.822;2022-12-07T12:46:46;10.63;;;4.93;;
58460;SDS011;45558;37.752;-97.822;2022-12-07T12:51:42;8.15;;;3.90;;
58460;SDS011;45558;37.752;-97.822;2022-12-07T12:54:19;14.52;;;4.80;;
58460;SDS011;45558;37.752;-97.822;2022-12-07T12:56:50;12.60;;;2.92;;
58460;SDS011;45558;37.752;-97.822;2022-12-07T13:04:57;6.28;;;2.35;;
58460;SDS011;45558;37.752;-97.822;2022-12-07T13:15:43;4.85;;;2.75;;
58460;SDS011;45558;37.752;-97.822;2022-12-07T13:20:57;10.57;;;2.78;;
58460;SDS011;45558;37.752;-97.822;2022-12-07T13:28:38;7.85;;;2.67;;
58460;SDS011;45558;37.752;-97.822;2022-12-07T13:33:37;9.93;;;2.45;;
58460;SDS011;45558;37.752;-97.822;2022-12-07T13:36:02;10.63;;;3.88;;
58460;SDS011;45558;37.752;-97.822;2022-12-07T13:38:30;7.40;;;3.13;;
58460;SDS011;45558;37.752;-97.822;2022-12-07T13:43:27;10.23;;;4.28;;
58460;SDS011;45558;37.752;-97.822;2022-12-07T13:45:57;19.17;;;9.32;;
58460;SDS011;45558;37.752;-97.822;2022-12-07T13:48:38;6.35;;;2.95;;
58460;SDS011;45558;37.752;-97.822;2022-12-07T13:51:16;6.28;;;2.72;;
58460;SDS011;45558;37.752;-97.822;2022-12-07T13:57:06;8.20;;;2.95;;
58460;SDS011;45558;37.752;-97.822;2022-12-07T13:59:32;5.47;;;2.08;;
58460;SDS011;45558;37.752;-97.822;2022-12-07T14:01:58;4.53;;;2.22;;
58460;SDS011;45558;37.752;-97.822;2022-12-07T14:06:57;6.40;;;2.00;;
58460;SDS011;45558;37.752;-97.822;2022-12-07T14:09:24;13.30;;;2.20;;
58460;SDS011;45558;37.752;-97.822;2022-12-07T14:11:54;4.50;;;1.98;;
58460;SDS011;45558;37.752;-97.822;2022-12-07T14:14:22;7.68;;;1.90;;
58460;SDS011;45558;37.752;-97.822;2022-12-07T14:16:58;6.45;;;2.22;;
58460;SDS011;45558;37.752;-97.822;2022-12-07T14:19:53;7.53;;;2.20;;
58460;SDS011;45558;37.752;-97.822;2022-12-07T14:22:41;20.83;;;9.57;;
58460;SDS011;45558;37.752;-97.822;2022-12-07T14:27:38;8.20;;;2.70;;
58460;SDS011;45558;37.752;-97.822;2022-12-07T14:30:04;5.03;;;2.05;;
58460;SDS011;45558;37.752;-97.822;2022-12-07T14:32:31;6.35;;;2.40;;
58460;SDS011;45558;37.752;-97.822;2022-12-07T14:37:28;7.82;;;2.10;;
58460;SDS011;45558;37.752;-97.822;2022-12-07T14:39:55;7.97;;;2.50;;
58460;SDS011;45558;37.752;-97.822;2022-12-07T14:42:21;3.78;;;1.70;;
58460;SDS011;45558;37.752;-97.822;2022-12-07T14:44:50;7.00;;;2.75;;
58460;SDS011;45558;37.752;-97.822;2022-12-07T14:47:15;9.45;;;3.22;;
58460;SDS011;45558;37.752;-97.822;2022-12-07T14:49:41;3.80;;;1.88;;
58460;SDS011;45558;37.752;-97.822;2022-12-07T14:52:09;6.25;;;2.45;;
58460;SDS011;45558;37.752;-97.822;2022-12-07T14:54:39;4.43;;;1.75;;
58460;SDS011;45558;37.752;-97.822;2022-12-07T14:57:04;4.45;;;2.00;;
58460;SDS011;45558;37.752;-97.822;2022-12-07T14:59:33;8.48;;;2.53;;
58460;SDS011;45558;37.752;-97.822;2022-12-07T15:01:58;5.55;;;2.08;;
58460;SDS011;45558;37.752;-97.822;2022-12-07T15:04:24;16.27;;;5.30;;
58460;SDS011;45558;37.752;-97.822;2022-12-07T15:06:57;36.75;;;18.48;;
58460;SDS011;45558;37.752;-97.822;2022-12-07T15:09:24;9.40;;;4.10;;
58460;SDS011;45558;37.752;-97.822;2022-12-07T15:11:50;11.55;;;6.63;;
58460;SDS011;45558;37.752;-97.822;2022-12-07T15:14:16;72.57;;;44.85;;
58460;SDS011;45558;37.752;-97.822;2022-12-07T15:16:42;63.33;;;40.55;;
58460;SDS011;45558;37.752;-97.822;2022-12-07T15:19:12;28.00;;;16.70;;
58460;SDS011;45558;37.752;-97.822;2022-12-07T15:21:39;39.72;;;27.15;;
58460;SDS011;45558;37.752;-97.822;2022-12-07T15:24:07;15.20;;;8.82;;
58460;SDS011;45558;37.752;-97.822;2022-12-07T15:26:34;27.58;;;19.15;;
58460;SDS011;45558;37.752;-97.822;2022-12-07T15:28:59;26.25;;;14.32;;
58460;SDS011;45558;37.752;-97.822;2022-12-07T15:31:25;22.73;;;12.73;;
58460;SDS011;45558;37.752;-97.822;2022-12-07T15:33:51;15.88;;;8.93;;
58460;SDS011;45558;37.752;-97.822;2022-12-07T15:36:20;7.90;;;2.65;;
58460;SDS011;45558;37.752;-97.822;2022-12-07T15:38:47;7.95;;;2.42;;
58460;SDS011;45558;37.752;-97.822;2022-12-07T15:41:13;6.90;;;2.28;;
58460;SDS011;45558;37.752;-97.822;2022-12-07T15:43:39;5.80;;;2.00;;
58460;SDS011;45558;37.752;-97.822;2022-12-07T15:46:23;6.20;;;2.47;;
58460;SDS011;45558;37.752;-97.822;2022-12-07T15:48:54;5.55;;;3.60;;
58460;SDS011;45558;37.752;-97.822;2022-12-07T15:51:19;6.90;;;2.60;;
58460;SDS011;45558;37.752;-97.822;2022-12-07T15:53:45;6.85;;;2.78;;
58460;SDS011;45558;37.752;-97.822;2022-12-07T15:56:11;6.75;;;3.20;;
58460;SDS011;45558;37.752;-97.822;2022-12-07T15:58:37;9.43;;;3.40;;
58460;SDS011;45558;37.752;-97.822;2022-12-07T16:01:21;10.10;;;4.68;;
58460;SDS011;45558;37.752;-97.822;2022-12-07T16:03:46;11.45;;;4.32;;
58460;SDS011;45558;37.752;-97.822;2022-12-07T16:06:15;6.78;;;3.88;;
58460;SDS011;45558;37.752;-97.822;2022-12-07T16:08:42;11.40;;;3.90;;
58460;SDS011;45558;37.752;-97.822;2022-12-07T16:11:11;12.18;;;4.70;;
58460;SDS011;45558;37.752;-97.822;2022-12-07T16:13:37;8.40;;;4.30;;
58460;SDS011;45558;37.752;-97.822;2022-12-07T16:16:05;8.80;;;3.85;;
58460;SDS011;45558;37.752;-97.822;2022-12-07T16:18:32;7.05;;;3.22;;
58460;SDS011;45558;37.752;-97.822;2022-12-07T16:20:58;7.18;;;2.70;;
58460;SDS011;45558;37.752;-97.822;2022-12-07T16:23:24;6.78;;;3.17;;
58460;SDS011;45558;37.752;-97.822;2022-12-07T16:25:49;9.50;;;3.42;;
58460;SDS011;45558;37.752;-97.822;2022-12-07T16:28:15;10.82;;;4.65;;
58460;SDS011;45558;37.752;-97.822;2022-12-07T16:30:40;48.03;;;23.70;;
58460;SDS011;45558;37.752;-97.822;2022-12-07T16:33:06;16.70;;;9.35;;